sensor_id;sensor_type;location;lat;lon;timestamp;pressure;altitude;pressure_sealevel;temperature;humidity
49377;BME280;35253;34.688;33.040;2023-09-19T00:01:39;100364.81;;;26.69;100.00
49377;BME280;35253;34.688;33.040;2023-09-19T00:04:05;100363.94;;;26.62;100.00
49377;BME280;35253;34.688;33.040;2023-09-19T00:06:36;100368.75;;;26.60;100.00
49377;BME280;35253;34.688;33.040;2023-09-19T00:09:03;100357.63;;;26.62;100.00
49377;BME280;35253;34.688;33.040;2023-09-19T00:11:29;100363.94;;;26.62;100.00
49377;BME280;35253;34.688;33.040;2023-09-19T00:13:54;100361.81;;;26.64;100.00
49377;BME280;35253;34.688;33.040;2023-09-19T00:16:20;100358.47;;;26.62;100.00
49377;BME280;35253;34.688;33.040;2023-09-19T00:18:46;100353.63;;;26.64;100.00
49377;BME280;35253;34.688;33.040;2023-09-19T00:21:12;100357.63;;;26.62;100.00
49377;BME280;35253;34.688;33.040;2023-09-19T00:23:38;100359.25;;;26.50;100.00
49377;BME280;35253;34.688;33.040;2023-09-19T00:26:06;100354.16;;;26.46;100.00
49377;BME280;35253;34.688;33.040;2023-09-19T00:28:32;100356.25;;;26.44;100.00
49377;BME280;35253;34.688;33.040;2023-09-19T00:30:57;100359.25;;;26.50;100.00
49377;BME280;35253;34.688;33.040;2023-09-19T00:33:27;100357.97;;;26.45;100.00
49377;BME280;35253;34.688;33.040;2023-09-19T00:35:55;100348.22;;;26.36;100.00
49377;BME280;35253;34.688;33.040;2023-09-19T00:38:22;100338.94;;;26.31;100.00
49377;BME280;35253;34.688;33.040;2023-09-19T00:40:53;100338.31;;;26.35;100.00
49377;BME280;35253;34.688;33.040;2023-09-19T00:43:19;100336.22;;;26.37;100.00
49377;BME280;35253;34.688;33.040;2023-09-19T00:45:47;100325.09;;;26.39;100.00
49377;BME280;35253;34.688;33.040;2023-09-19T00:48:15;100329.34;;;26.41;100.00
49377;BME280;35253;34.688;33.040;2023-09-19T00:50:46;100333.72;;;26.42;100.00
49377;BME280;35253;34.688;33.040;2023-09-19T00:53:14;100327.03;;;26.45;100.00
49377;BME280;35253;34.688;33.040;2023-09-19T00:55:44;100323.03;;;26.48;100.00
49377;BME280;35253;34.688;33.040;2023-09-19T00:58:10;100332.94;;;26.49;100.00
49377;BME280;35253;34.688;33.040;2023-09-19T01:00:37;100319.06;;;26.50;100.00
49377;BME280;35253;34.688;33.040;2023-09-19T01:03:03;100321.81;;;26.50;100.00
49377;BME280;35253;34.688;33.040;2023-09-19T01:05:29;100330.84;;;26.51;100.00
49377;BME280;35253;34.688;33.040;2023-09-19T01:07:55;100315.50;;;26.50;100.00
49377;BME280;35253;34.688;33.040;2023-09-19T01:10:22;100322.63;;;26.51;100.00
49377;BME280;35253;34.688;33.040;2023-09-19T01:29:47;100332.88;;;26.35;100.00
49377;BME280;35253;34.688;33.040;2023-09-19T01:32:17;100333.06;;;26.34;100.00
49377;BME280;35253;34.688;33.040;2023-09-19T01:34:47;100333.06;;;26.34;100.00
49377;BME280;35253;34.688;33.040;2023-09-19T01:37:19;100321.84;;;26.22;100.00
49377;BME280;35253;34.688;33.040;2023-09-19T01:40:09;100326.66;;;26.20;100.00
49377;BME280;35253;34.688;33.040;2023-09-19T01:43:08;100320.47;;;26.12;100.00
49377;BME280;35253;34.688;33.040;2023-09-19T01:48:19;100319.41;;;26.06;100.00
49377;BME280;35253;34.688;33.040;2023-09-19T01:51:05;100331.53;;;25.97;100.00
49377;BME280;35253;34.688;33.040;2023-09-19T01:53:57;100320.59;;;25.97;100.00
49377;BME280;35253;34.688;33.040;2023-09-19T01:56:37;100318.03;;;25.89;100.00
49377;BME280;35253;34.688;33.040;2023-09-19T01:59:20;100320.88;;;25.81;100.00
49377;BME280;35253;34.688;33.040;2023-09-19T02:01:48;100322.56;;;25.82;100.00
49377;BME280;35253;34.688;33.040;2023-09-19T02:04:15;100332.19;;;25.78;100.00
49377;BME280;35253;34.688;33.040;2023-09-19T02:06:41;100333.91;;;25.79;100.00
49377;BME280;35253;34.688;33.040;2023-09-19T02:09:07;100333.63;;;25.74;100.00
49377;BME280;35253;34.688;33.040;2023-09-19T02:11:34;100333.91;;;25.79;100.00
49377;BME280;35253;34.688;33.040;2023-09-19T02:14:00;100337.50;;;25.86;100.00
49377;BME280;35253;34.688;33.040;2023-09-19T02:16:26;100339.41;;;25.85;100.00
49377;BME280;35253;34.688;33.040;2023-09-19T02:18:53;100334.06;;;25.77;100.00
49377;BME280;35253;34.688;33.040;2023-09-19T02:21:18;100337.81;;;25.70;100.00
49377;BME280;35253;34.688;33.040;2023-09-19T02:23:45;100331.69;;;25.68;100.00
49377;BME280;35253;34.688;33.040;2023-09-19T02:26:13;100338.41;;;25.65;100.00
49377;BME280;35253;34.688;33.040;2023-09-19T02:28:39;100341.72;;;25.61;100.00
49377;BME280;35253;34.688;33.040;2023-09-19T02:31:05;100336.25;;;25.61;100.00
49377;BME280;35253;34.688;33.040;2023-09-19T02:33:31;100341.38;;;25.49;100.00
49377;BME280;35253;34.688;33.040;2023-09-19T02:35:59;100339.09;;;25.52;100.00
49377;BME280;35253;34.688;33.040;2023-09-19T02:38:27;100338.31;;;25.58;100.00
49377;BME280;35253;34.688;33.040;2023-09-19T02:40:54;100331.56;;;25.54;100.00
49377;BME280;35253;34.688;33.040;2023-09-19T02:43:23;100331.56;;;25.54;100.00
49377;BME280;35253;34.688;33.040;2023-09-19T02:45:49;100333.25;;;25.55;100.00
49377;BME280;35253;34.688;33.040;2023-09-19T02:48:16;100339.44;;;25.49;100.00
49377;BME280;35253;34.688;33.040;2023-09-19T02:50:42;100341.63;;;25.54;100.00
49377;BME280;35253;34.688;33.040;2023-09-19T02:53:08;100343.59;;;25.60;100.00
49377;BME280;35253;34.688;33.040;2023-09-19T02:55:36;100345.28;;;25.61;100.00
49377;BME280;35253;34.688;33.040;2023-09-19T02:58:03;100342.84;;;25.51;100.00
49377;BME280;35253;34.688;33.040;2023-09-19T03:00:30;100344.44;;;25.61;100.00
49377;BME280;35253;34.688;33.040;2023-09-19T03:02:56;100350.22;;;25.72;100.00
49377;BME280;35253;34.688;33.040;2023-09-19T03:05:23;100349.00;;;25.75;100.00
49377;BME280;35253;34.688;33.040;2023-09-19T03:07:49;100346.25;;;25.75;100.00
49377;BME280;35253;34.688;33.040;2023-09-19T03:10:19;100346.84;;;25.70;100.00
49377;BME280;35253;34.688;33.040;2023-09-19T03:12:46;100355.63;;;25.66;100.00
49377;BME280;35253;34.688;33.040;2023-09-19T03:15:12;100363.16;;;25.64;100.00
49377;BME280;35253;34.688;33.040;2023-09-19T03:17:38;100366.09;;;25.62;100.00
49377;BME280;35253;34.688;33.040;2023-09-19T03:20:08;100360.16;;;25.58;100.00
49377;BME280;35253;34.688;33.040;2023-09-19T03:22:34;100367.97;;;25.62;100.00
49377;BME280;35253;34.688;33.040;2023-09-19T03:25:00;100371.56;;;25.62;100.00
49377;BME280;35253;34.688;33.040;2023-09-19T03:27:26;100367.31;;;25.60;100.00
49377;BME280;35253;34.688;33.040;2023-09-19T03:29:52;100372.78;;;25.60;100.00
49377;BME280;35253;34.688;33.040;2023-09-19T03:32:19;100373.19;;;25.56;100.00
49377;BME280;35253;34.688;33.040;2023-09-19T03:34:45;100372.78;;;25.60;100.00
49377;BME280;35253;34.688;33.040;2023-09-19T03:37:13;100379.38;;;25.50;100.00
49377;BME280;35253;34.688;33.040;2023-09-19T03:39:39;100378.06;;;25.46;100.00
49377;BME280;35253;34.688;33.040;2023-09-19T03:42:05;100375.50;;;25.60;100.00
49377;BME280;35253;34.688;33.040;2023-09-19T03:44:32;100373.19;;;25.56;100.00
49377;BME280;35253;34.688;33.040;2023-09-19T03:46:58;100380.69;;;25.54;100.00
49377;BME280;35253;34.688;33.040;2023-09-19T03:49:23;100379.53;;;25.64;100.00
49377;BME280;35253;34.688;33.040;2023-09-19T03:51:49;100385.41;;;25.61;100.00
49377;BME280;35253;34.688;33.040;2023-09-19T03:54:15;100386.66;;;25.58;100.00
49377;BME280;35253;34.688;33.040;2023-09-19T03:56:42;100384.94;;;25.57;100.00
49377;BME280;35253;34.688;33.040;2023-09-19T03:59:09;100387.94;;;25.62;100.00
49377;BME280;35253;34.688;33.040;2023-09-19T04:01:35;100390.09;;;25.67;100.00
49377;BME280;35253;34.688;33.040;2023-09-19T04:04:00;100397.94;;;25.76;100.00
49377;BME280;35253;34.688;33.040;2023-09-19T04:06:36;100395.69;;;25.80;100.00
49377;BME280;35253;34.688;33.040;2023-09-19T04:09:05;100402.88;;;25.87;100.00
49377;BME280;35253;34.688;33.040;2023-09-19T04:11:33;100401.72;;;25.96;100.00
49377;BME280;35253;34.688;33.040;2023-09-19T04:13:59;100397.97;;;26.04;100.00
49377;BME280;35253;34.688;33.040;2023-09-19T04:16:25;100408.91;;;26.25;100.00
49377;BME280;35253;34.688;33.040;2023-09-19T04:18:51;100405.88;;;26.41;100.00
49377;BME280;35253;34.688;33.040;2023-09-19T04:21:16;100422.38;;;26.55;100.00
49377;BME280;35253;34.688;33.040;2023-09-19T04:23:42;100420.97;;;26.65;100.00
49377;BME280;35253;34.688;33.040;2023-09-19T04:26:08;100415.75;;;26.77;100.00
49377;BME280;35253;34.688;33.040;2023-09-19T04:28:34;100423.84;;;26.85;100.00
49377;BME280;35253;34.688;33.040;2023-09-19T04:31:00;100422.63;;;26.94;100.00
49377;BME280;35253;34.688;33.040;2023-09-19T04:33:26;100425.81;;;27.04;100.00
49377;BME280;35253;34.688;33.040;2023-09-19T04:35:52;100431.59;;;27.22;100.00
49377;BME280;35253;34.688;33.040;2023-09-19T04:38:18;100434.38;;;27.35;100.00
49377;BME280;35253;34.688;33.040;2023-09-19T04:40:45;100436.69;;;27.39;100.00
49377;BME280;35253;34.688;33.040;2023-09-19T04:43:11;100435.13;;;27.51;100.00
49377;BME280;35253;34.688;33.040;2023-09-19T04:45:38;100434.91;;;27.65;100.00
49377;BME280;35253;34.688;33.040;2023-09-19T04:48:04;100445.91;;;27.78;100.00
49377;BME280;35253;34.688;33.040;2023-09-19T04:50:32;100434.75;;;27.87;100.00
49377;BME280;35253;34.688;33.040;2023-09-19T04:53:00;100425.06;;;27.97;100.00
49377;BME280;35253;34.688;33.040;2023-09-19T04:55:26;100427.19;;;28.02;100.00
49377;BME280;35253;34.688;33.040;2023-09-19T04:57:53;100430.34;;;27.99;100.00
49377;BME280;35253;34.688;33.040;2023-09-19T05:00:23;100434.34;;;28.09;100.00
49377;BME280;35253;34.688;33.040;2023-09-19T05:02:55;100430.59;;;28.17;100.00
49377;BME280;35253;34.688;33.040;2023-09-19T05:05:24;100437.78;;;28.25;100.00
49377;BME280;35253;34.688;33.040;2023-09-19T05:07:51;100431.41;;;28.31;100.00
49377;BME280;35253;34.688;33.040;2023-09-19T05:10:18;100433.97;;;28.39;100.00
49377;BME280;35253;34.688;33.040;2023-09-19T05:12:44;100431.84;;;28.41;100.00
49377;BME280;35253;34.688;33.040;2023-09-19T05:15:13;100443.66;;;28.48;100.00
49377;BME280;35253;34.688;33.040;2023-09-19T05:17:48;100437.31;;;28.54;100.00
49377;BME280;35253;34.688;33.040;2023-09-19T05:20:15;100439.00;;;28.55;100.00
49377;BME280;35253;34.688;33.040;2023-09-19T05:22:41;100446.19;;;28.56;100.00
49377;BME280;35253;34.688;33.040;2023-09-19T05:25:09;100448.50;;;28.59;100.00
49377;BME280;35253;34.688;33.040;2023-09-19T05:27:35;100446.38;;;28.35;100.00
49377;BME280;35253;34.688;33.040;2023-09-19T05:30:01;100451.66;;;28.36;100.00
49377;BME280;35253;34.688;33.040;2023-09-19T05:32:27;100454.22;;;28.25;100.00
49377;BME280;35253;34.688;33.040;2023-09-19T05:34:52;100460.53;;;28.18;100.00
49377;BME280;35253;34.688;33.040;2023-09-19T05:37:19;100468.91;;;27.97;100.00
49377;BME280;35253;34.688;33.040;2023-09-19T05:39:45;100467.22;;;27.96;100.00
49377;BME280;35253;34.688;33.040;2023-09-19T05:42:10;100471.22;;;28.00;100.00
49377;BME280;35253;34.688;33.040;2023-09-19T05:44:36;100473.88;;;27.61;100.00
49377;BME280;35253;34.688;33.040;2023-09-19T05:47:03;100471.34;;;27.53;100.00
49377;BME280;35253;34.688;33.040;2023-09-19T05:49:28;100477.16;;;27.37;100.00
49377;BME280;35253;34.688;33.040;2023-09-19T05:51:54;100481.50;;;27.72;100.00
49377;BME280;35253;34.688;33.040;2023-09-19T05:54:22;100474.41;;;27.43;100.00
49377;BME280;35253;34.688;33.040;2023-09-19T05:56:48;100486.38;;;27.29;100.00
49377;BME280;35253;34.688;33.040;2023-09-19T05:59:18;100481.06;;;27.55;100.00
49377;BME280;35253;34.688;33.040;2023-09-19T06:01:44;100478.50;;;27.54;100.00
49377;BME280;35253;34.688;33.040;2023-09-19T06:04:09;100482.97;;;27.20;100.00
49377;BME280;35253;34.688;33.040;2023-09-19T06:06:35;100486.06;;;27.52;100.00
49377;BME280;35253;34.688;33.040;2023-09-19T06:09:04;100491.50;;;27.45;100.00
49377;BME280;35253;34.688;33.040;2023-09-19T06:11:31;100491.50;;;27.45;100.00
49377;BME280;35253;34.688;33.040;2023-09-19T06:14:02;100498.34;;;27.62;100.00
49377;BME280;35253;34.688;33.040;2023-09-19T06:16:29;100503.63;;;27.29;100.00
49377;BME280;35253;34.688;33.040;2023-09-19T06:18:57;100497.78;;;27.32;100.00
49377;BME280;35253;34.688;33.040;2023-09-19T06:21:24;100509.69;;;27.53;100.00
49377;BME280;35253;34.688;33.040;2023-09-19T06:23:49;100505.38;;;27.37;100.00
49377;BME280;35253;34.688;33.040;2023-09-19T06:26:15;100508.69;;;27.73;100.00
49377;BME280;35253;34.688;33.040;2023-09-19T06:28:41;100506.75;;;27.61;100.00
49377;BME280;35253;34.688;33.040;2023-09-19T06:31:08;100504.34;;;27.38;100.00
49377;BME280;35253;34.688;33.040;2023-09-19T06:33:38;100505.38;;;27.44;100.00
49377;BME280;35253;34.688;33.040;2023-09-19T06:36:05;100510.41;;;27.88;100.00
49377;BME280;35253;34.688;33.040;2023-09-19T06:38:31;100510.66;;;27.86;100.00
49377;BME280;35253;34.688;33.040;2023-09-19T06:40:59;100514.03;;;28.01;100.00
49377;BME280;35253;34.688;33.040;2023-09-19T06:43:26;100510.63;;;27.79;100.00
49377;BME280;35253;34.688;33.040;2023-09-19T06:45:53;100515.38;;;27.58;100.00
49377;BME280;35253;34.688;33.040;2023-09-19T06:48:20;100513.19;;;27.94;100.00
49377;BME280;35253;34.688;33.040;2023-09-19T06:50:46;100515.34;;;28.18;100.00
49377;BME280;35253;34.688;33.040;2023-09-19T06:53:13;100516.03;;;28.34;100.00
49377;BME280;35253;34.688;33.040;2023-09-19T06:55:39;100508.84;;;28.19;100.00
49377;BME280;35253;34.688;33.040;2023-09-19T06:58:05;100512.84;;;28.37;100.00
49377;BME280;35253;34.688;33.040;2023-09-19T07:00:31;100515.81;;;28.48;100.00
49377;BME280;35253;34.688;33.040;2023-09-19T07:03:03;100516.22;;;28.26;100.00
49377;BME280;35253;34.688;33.040;2023-09-19T07:05:31;100520.47;;;28.48;100.00
49377;BME280;35253;34.688;33.040;2023-09-19T07:07:58;100518.75;;;28.53;100.00
49377;BME280;35253;34.688;33.040;2023-09-19T07:10:25;100525.53;;;28.64;100.00
49377;BME280;35253;34.688;33.040;2023-09-19T07:12:58;100518.78;;;28.34;100.00
49377;BME280;35253;34.688;33.040;2023-09-19T07:15:25;100515.38;;;28.45;100.00
49377;BME280;35253;34.688;33.040;2023-09-19T07:17:54;100519.19;;;28.57;100.00
49377;BME280;35253;34.688;33.040;2023-09-19T07:20:23;100524.88;;;28.29;100.00
49377;BME280;35253;34.688;33.040;2023-09-19T07:22:51;100526.34;;;28.25;100.00
49377;BME280;35253;34.688;33.040;2023-09-19T07:25:17;100521.94;;;28.37;100.00
49377;BME280;35253;34.688;33.040;2023-09-19T07:27:43;100525.22;;;28.06;100.00
49377;BME280;35253;34.688;33.040;2023-09-19T07:30:10;100523.81;;;28.37;100.00
49377;BME280;35253;34.688;33.040;2023-09-19T07:32:37;100521.50;;;28.20;100.00
49377;BME280;35253;34.688;33.040;2023-09-19T07:35:04;100517.50;;;28.56;100.00
49377;BME280;35253;34.688;33.040;2023-09-19T07:37:33;100520.03;;;28.71;100.00
49377;BME280;35253;34.688;33.040;2023-09-19T07:39:59;100522.16;;;28.82;100.00
49377;BME280;35253;34.688;33.040;2023-09-19T07:42:26;100534.38;;;28.92;100.00
49377;BME280;35253;34.688;33.040;2023-09-19T07:44:52;100517.91;;;28.92;100.00
49377;BME280;35253;34.688;33.040;2023-09-19T07:47:20;100526.56;;;29.02;100.00
49377;BME280;35253;34.688;33.040;2023-09-19T07:49:49;100527.81;;;29.13;100.00
49377;BME280;35253;34.688;33.040;2023-09-19T07:52:15;100528.88;;;29.05;100.00
49377;BME280;35253;34.688;33.040;2023-09-19T07:54:41;100534.16;;;29.14;100.00
49377;BME280;35253;34.688;33.040;2023-09-19T07:57:09;100527.16;;;29.18;100.00
49377;BME280;35253;34.688;33.040;2023-09-19T07:59:36;100525.47;;;29.30;100.00
49377;BME280;35253;34.688;33.040;2023-09-19T08:02:04;100520.81;;;29.30;100.00
49377;BME280;35253;34.688;33.040;2023-09-19T08:04:30;100519.59;;;28.93;100.00
49377;BME280;35253;34.688;33.040;2023-09-19T08:06:57;100522.09;;;29.15;100.00
49377;BME280;35253;34.688;33.040;2023-09-19T08:09:26;100522.53;;;29.11;100.00
49377;BME280;35253;34.688;33.040;2023-09-19T08:11:53;100514.69;;;29.22;100.00
49377;BME280;35253;34.688;33.040;2023-09-19T08:14:18;100518.25;;;29.29;100.00
49377;BME280;35253;34.688;33.040;2023-09-19T08:16:44;100522.06;;;29.34;100.00
49377;BME280;35253;34.688;33.040;2023-09-19T08:19:10;100517.63;;;29.40;100.00
49377;BME280;35253;34.688;33.040;2023-09-19T08:21:36;100513.19;;;29.26;100.00
49377;BME280;35253;34.688;33.040;2023-09-19T08:24:02;100515.41;;;28.91;100.00
49377;BME280;35253;34.688;33.040;2023-09-19T08:26:29;100513.66;;;29.09;100.00
49377;BME280;35253;34.688;33.040;2023-09-19T08:28:56;100512.38;;;29.12;100.00
49377;BME280;35253;34.688;33.040;2023-09-19T08:31:21;100514.53;;;29.03;100.00
49377;BME280;35253;34.688;33.040;2023-09-19T08:33:48;100505.44;;;28.96;100.00
49377;BME280;35253;34.688;33.040;2023-09-19T08:36:14;100506.53;;;28.69;100.00
49377;BME280;35253;34.688;33.040;2023-09-19T08:38:40;100500.19;;;28.62;100.00
49377;BME280;35253;34.688;33.040;2023-09-19T08:41:07;100503.53;;;28.97;100.00
49377;BME280;35253;34.688;33.040;2023-09-19T08:43:33;100497.16;;;29.09;100.00
49377;BME280;35253;34.688;33.040;2023-09-19T08:46:11;100503.47;;;29.23;100.00
49377;BME280;35253;34.688;33.040;2023-09-19T08:49:08;100504.34;;;29.30;100.00
49377;BME280;35253;34.688;33.040;2023-09-19T08:51:42;100505.13;;;29.44;100.00
49377;BME280;35253;34.688;33.040;2023-09-19T08:54:28;100495.81;;;29.51;100.00
49377;BME280;35253;34.688;33.040;2023-09-19T08:56:59;100493.00;;;29.58;100.00
49377;BME280;35253;34.688;33.040;2023-09-19T08:59:28;100496.66;;;29.45;100.00
49377;BME280;35253;34.688;33.040;2023-09-19T09:01:55;100491.72;;;29.03;100.00
49377;BME280;35253;34.688;33.040;2023-09-19T09:04:22;100487.34;;;29.53;100.00
49377;BME280;35253;34.688;33.040;2023-09-19T09:06:48;100485.13;;;29.68;100.00
49377;BME280;35253;34.688;33.040;2023-09-19T09:09:17;100486.38;;;29.79;100.00
49377;BME280;35253;34.688;33.040;2023-09-19T09:11:42;100486.84;;;29.69;100.00
49377;BME280;35253;34.688;33.040;2023-09-19T09:14:08;100488.16;;;29.60;100.00
49377;BME280;35253;34.688;33.040;2023-09-19T09:16:34;100485.72;;;29.39;100.00
49377;BME280;35253;34.688;33.040;2023-09-19T09:19:00;100479.91;;;28.96;100.00
49377;BME280;35253;34.688;33.040;2023-09-19T09:21:27;100483.91;;;29.00;100.00
49377;BME280;35253;34.688;33.040;2023-09-19T09:23:54;100480.22;;;29.39;100.00
49377;BME280;35253;34.688;33.040;2023-09-19T09:29:04;100485.72;;;29.26;100.00
49377;BME280;35253;34.688;33.040;2023-09-19T09:31:30;100484.97;;;28.92;100.00
49377;BME280;35253;34.688;33.040;2023-09-19T09:33:56;100485.47;;;29.40;100.00
49377;BME280;35253;34.688;33.040;2023-09-19T09:39:02;100481.22;;;29.44;100.00
49377;BME280;35253;34.688;33.040;2023-09-19T09:41:41;100475.66;;;29.64;100.00
49377;BME280;35253;34.688;33.040;2023-09-19T09:44:16;100487.56;;;29.51;100.00
49377;BME280;35253;34.688;33.040;2023-09-19T09:46:44;100482.28;;;29.50;100.00
49377;BME280;35253;34.688;33.040;2023-09-19T09:49:26;100479.34;;;29.89;100.00
49377;BME280;35253;34.688;33.040;2023-09-19T09:52:05;100478.91;;;29.48;100.00
49377;BME280;35253;34.688;33.040;2023-09-19T09:55:00;100486.59;;;29.20;100.00
49377;BME280;35253;34.688;33.040;2023-09-19T09:57:31;100487.22;;;29.22;100.00
49377;BME280;35253;34.688;33.040;2023-09-19T09:59:58;100481.91;;;29.40;100.00
49377;BME280;35253;34.688;33.040;2023-09-19T10:02:40;100481.47;;;29.43;100.00
49377;BME280;35253;34.688;33.040;2023-09-19T10:05:15;100486.91;;;29.56;100.00
49377;BME280;35253;34.688;33.040;2023-09-19T10:07:46;100475.94;;;29.49;100.00
49377;BME280;35253;34.688;33.040;2023-09-19T10:10:40;100472.63;;;29.79;100.00
49377;BME280;35253;34.688;33.040;2023-09-19T10:13:10;100463.91;;;29.88;100.00
49377;BME280;35253;34.688;33.040;2023-09-19T10:15:44;100470.03;;;30.22;100.00
49377;BME280;35253;34.688;33.040;2023-09-19T10:18:20;100467.34;;;29.77;100.00
49377;BME280;35253;34.688;33.040;2023-09-19T10:20:47;100457.22;;;29.71;100.00
49377;BME280;35253;34.688;33.040;2023-09-19T10:23:15;100459.25;;;29.89;100.00
49377;BME280;35253;34.688;33.040;2023-09-19T10:25:48;100458.66;;;30.12;100.00
49377;BME280;35253;34.688;33.040;2023-09-19T10:28:16;100448.91;;;30.16;100.00
49377;BME280;35253;34.688;33.040;2023-09-19T10:30:46;100456.97;;;30.11;100.00
49377;BME280;35253;34.688;33.040;2023-09-19T10:33:17;100456.44;;;30.27;100.00
49377;BME280;35253;34.688;33.040;2023-09-19T10:35:44;100455.22;;;30.23;100.00
49377;BME280;35253;34.688;33.040;2023-09-19T10:38:12;100446.78;;;30.18;100.00
49377;BME280;35253;34.688;33.040;2023-09-19T10:40:39;100436.31;;;30.58;100.00
49377;BME280;35253;34.688;33.040;2023-09-19T10:43:16;100437.88;;;30.22;100.00
49377;BME280;35253;34.688;33.040;2023-09-19T10:45:48;100432.88;;;30.99;100.00
49377;BME280;35253;34.688;33.040;2023-09-19T10:48:18;100441.91;;;30.87;100.00
49377;BME280;35253;34.688;33.040;2023-09-19T10:51:10;100446.03;;;30.97;100.00
49377;BME280;35253;34.688;33.040;2023-09-19T10:53:59;100441.06;;;30.44;100.00
49377;BME280;35253;34.688;33.040;2023-09-19T10:56:36;100446.91;;;30.54;100.00
49377;BME280;35253;34.688;33.040;2023-09-19T10:59:12;100434.56;;;30.81;100.00
49377;BME280;35253;34.688;33.040;2023-09-19T11:01:56;100438.56;;;29.80;100.00
49377;BME280;35253;34.688;33.040;2023-09-19T11:04:38;100444.09;;;30.36;100.00
49377;BME280;35253;34.688;33.040;2023-09-19T11:07:12;100453.38;;;30.84;100.00
49377;BME280;35253;34.688;33.040;2023-09-19T11:09:55;100446.63;;;30.62;100.00
49377;BME280;35253;34.688;33.040;2023-09-19T11:15:07;100447.53;;;30.31;100.00
49377;BME280;35253;34.688;33.040;2023-09-19T11:17:43;100438.94;;;30.46;100.00
49377;BME280;35253;34.688;33.040;2023-09-19T11:30:42;100434.59;;;31.18;100.00
49377;BME280;35253;34.688;33.040;2023-09-19T11:33:22;100431.53;;;31.08;100.00
49377;BME280;35253;34.688;33.040;2023-09-19T11:36:09;100431.06;;;30.93;100.00
49377;BME280;35253;34.688;33.040;2023-09-19T11:44:31;100428.81;;;31.86;100.00
49377;BME280;35253;34.688;33.040;2023-09-19T11:49:28;100438.72;;;31.09;100.00
49377;BME280;35253;34.688;33.040;2023-09-19T11:52:02;100438.47;;;30.92;100.00
49377;BME280;35253;34.688;33.040;2023-09-19T11:54:33;100439.22;;;30.99;100.00
49377;BME280;35253;34.688;33.040;2023-09-19T11:57:02;100432.06;;;31.64;100.00
49377;BME280;35253;34.688;33.040;2023-09-19T11:59:30;100433.69;;;31.06;100.00
49377;BME280;35253;34.688;33.040;2023-09-19T12:02:06;100431.78;;;30.45;100.00
49377;BME280;35253;34.688;33.040;2023-09-19T12:04:41;100426.53;;;30.62;100.00
49377;BME280;35253;34.688;33.040;2023-09-19T12:07:12;100432.00;;;31.05;100.00
49377;BME280;35253;34.688;33.040;2023-09-19T12:09:42;100436.72;;;30.55;100.00
49377;BME280;35253;34.688;33.040;2023-09-19T12:12:24;100416.66;;;30.72;100.00
49377;BME280;35253;34.688;33.040;2023-09-19T12:14:53;100423.16;;;30.78;100.00
49377;BME280;35253;34.688;33.040;2023-09-19T12:17:19;100423.06;;;31.39;100.00
49377;BME280;35253;34.688;33.040;2023-09-19T12:19:53;100433.31;;;30.77;100.00
49377;BME280;35253;34.688;33.040;2023-09-19T12:22:18;100425.44;;;31.06;100.00
49377;BME280;35253;34.688;33.040;2023-09-19T12:24:46;100429.97;;;31.30;100.00
49377;BME280;35253;34.688;33.040;2023-09-19T12:27:12;100421.72;;;31.12;100.00
49377;BME280;35253;34.688;33.040;2023-09-19T12:29:43;100424.28;;;31.61;100.00
49377;BME280;35253;34.688;33.040;2023-09-19T12:32:09;100419.91;;;31.24;100.00
49377;BME280;35253;34.688;33.040;2023-09-19T12:34:36;100419.19;;;30.74;100.00
49377;BME280;35253;34.688;33.040;2023-09-19T12:37:10;100421.44;;;30.59;100.00
49377;BME280;35253;34.688;33.040;2023-09-19T12:39:37;100426.97;;;30.77;100.00
49377;BME280;35253;34.688;33.040;2023-09-19T12:42:03;100424.59;;;31.53;100.00
49377;BME280;35253;34.688;33.040;2023-09-19T12:44:31;100420.88;;;31.11;100.00
49377;BME280;35253;34.688;33.040;2023-09-19T12:47:07;100414.94;;;31.14;100.00
49377;BME280;35253;34.688;33.040;2023-09-19T12:49:34;100421.13;;;31.28;100.00
49377;BME280;35253;34.688;33.040;2023-09-19T12:52:00;100415.75;;;30.97;100.00
49377;BME280;35253;34.688;33.040;2023-09-19T12:54:39;100418.91;;;31.00;100.00
49377;BME280;35253;34.688;33.040;2023-09-19T12:57:05;100413.47;;;30.75;100.00
49377;BME280;35253;34.688;33.040;2023-09-19T12:59:31;100423.31;;;30.40;100.00
49377;BME280;35253;34.688;33.040;2023-09-19T13:02:07;100418.72;;;30.34;100.00
49377;BME280;35253;34.688;33.040;2023-09-19T13:04:33;100425.00;;;30.16;100.00
49377;BME280;35253;34.688;33.040;2023-09-19T13:07:00;100426.00;;;30.22;100.00
49377;BME280;35253;34.688;33.040;2023-09-19T13:09:27;100421.34;;;30.22;100.00
49377;BME280;35253;34.688;33.040;2023-09-19T13:12:34;100423.09;;;30.17;100.00
49377;BME280;35253;34.688;33.040;2023-09-19T13:15:10;100409.66;;;30.02;100.00
49377;BME280;35253;34.688;33.040;2023-09-19T13:17:48;100407.06;;;30.14;100.00
49377;BME280;35253;34.688;33.040;2023-09-19T13:20:24;100397.41;;;30.05;100.00
49377;BME280;35253;34.688;33.040;2023-09-19T13:22:54;100397.66;;;29.65;100.00
49377;BME280;35253;34.688;33.040;2023-09-19T13:25:35;100402.25;;;29.71;100.00
49377;BME280;35253;34.688;33.040;2023-09-19T13:28:01;100403.50;;;29.75;100.00